createdAt,value
2018-02-02T00:00:14.310Z,98925.76
2018-02-02T00:01:20.000Z,98927.14
2018-02-02T00:02:25.732Z,98930.61
2018-02-02T00:03:32.257Z,98928.44
2018-02-02T00:04:38.770Z,98935.39
2018-02-02T00:05:44.494Z,98928.95
2018-02-02T00:06:50.186Z,98935.05
2018-02-02T00:07:55.941Z,98936.75
2018-02-02T00:09:02.401Z,98932.83
2018-02-02T00:10:08.999Z,98935.84
2018-02-02T00:11:14.705Z,98935.48
2018-02-02T00:12:20.423Z,98934.73
2018-02-02T00:13:26.249Z,98943.34
2018-02-02T00:14:32.170Z,98939.48
2018-02-02T00:15:37.868Z,98940.78
2018-02-02T00:16:43.631Z,98942.47
2018-02-02T00:17:50.098Z,98944.66
2018-02-02T00:18:55.819Z,98943.70
2018-02-02T00:20:01.569Z,98938.52
2018-02-02T00:21:08.028Z,98946.63
2018-02-02T00:22:14.494Z,98941.87
2018-02-02T00:23:20.218Z,98943.16
2018-02-02T00:24:26.715Z,98942.41
2018-02-02T00:25:32.418Z,98946.86
2018-02-02T00:26:38.892Z,98949.30
2018-02-02T00:27:44.595Z,98951.53
2018-02-02T00:28:50.289Z,98948.52
2018-02-02T00:29:56.006Z,98944.63
2018-02-02T00:31:02.476Z,98947.28
2018-02-02T00:32:08.279Z,98955.53
2018-02-02T00:33:14.774Z,98945.62
2018-02-02T00:34:21.234Z,98940.83
2018-02-02T00:35:27.712Z,98946.38
2018-02-02T00:36:33.411Z,98950.30
2018-02-02T00:37:38.969Z,98945.59
2018-02-02T00:38:45.445Z,98945.65
2018-02-02T00:39:51.151Z,98950.89
2018-02-02T00:40:57.661Z,98948.21
2018-02-02T00:42:03.351Z,98947.00
2018-02-02T00:43:09.812Z,98948.63
2018-02-02T00:44:16.268Z,98951.70
2018-02-02T00:45:22.755Z,98953.98
2018-02-02T00:46:28.204Z,98951.00
2018-02-02T00:47:33.887Z,98951.90
2018-02-02T00:48:40.360Z,98952.44
2018-02-02T00:49:46.827Z,98947.31
2018-02-02T00:50:58.591Z,98950.33
2018-02-02T00:52:05.073Z,98953.00
2018-02-02T00:53:10.768Z,98950.50
2018-02-02T00:54:16.551Z,98953.00
2018-02-02T00:55:23.003Z,98959.14
2018-02-02T00:56:29.479Z,98955.79
2018-02-02T00:57:35.835Z,98962.41
2018-02-02T00:58:41.540Z,98962.44
2018-02-02T00:59:47.223Z,98964.17
2018-02-02T01:00:52.925Z,98962.04
2018-02-02T01:01:59.422Z,98962.58
2018-02-02T01:03:06.071Z,98963.03
2018-02-02T01:04:11.759Z,98963.87
2018-02-02T01:05:17.456Z,98965.08
2018-02-02T01:06:23.143Z,98965.05
2018-02-02T01:07:28.831Z,98959.96
2018-02-02T01:08:34.343Z,98964.32
2018-02-02T01:09:40.803Z,98963.00
2018-02-02T01:10:47.275Z,98964.32
2018-02-02T01:11:52.979Z,98966.55
2018-02-02T01:12:58.726Z,98966.98
2018-02-02T01:14:04.635Z,98972.17
2018-02-02T01:15:10.328Z,98969.22
2018-02-02T01:16:16.799Z,98970.17
2018-02-02T01:17:22.488Z,98965.87
2018-02-02T01:18:28.183Z,98963.73
2018-02-02T01:19:33.907Z,98957.70
2018-02-02T01:20:40.381Z,98964.63
2018-02-02T01:21:46.854Z,98966.31
2018-02-02T01:22:52.552Z,98970.20
2018-02-02T01:23:58.269Z,98967.19
2018-02-02T01:25:03.736Z,98965.50
2018-02-02T01:26:10.195Z,98965.22
2018-02-02T01:27:16.655Z,98958.47
2018-02-02T01:28:23.129Z,98963.70
2018-02-02T01:29:29.584Z,98967.95
2018-02-02T01:30:35.296Z,98969.69
2018-02-02T01:31:40.985Z,98968.45
2018-02-02T01:32:47.450Z,98968.00
2018-02-02T01:33:53.214Z,98968.47
2018-02-02T01:34:58.900Z,98967.30
2018-02-02T01:36:04.612Z,98966.42
2018-02-02T01:37:10.301Z,98966.42
2018-02-02T01:38:16.761Z,98963.05
2018-02-02T01:39:23.221Z,98970.30
2018-02-02T01:40:29.684Z,98963.47
2018-02-02T01:41:35.403Z,98968.22
2018-02-02T01:42:41.668Z,98963.91
2018-02-02T01:43:48.132Z,98967.41
2018-02-02T01:44:54.598Z,98971.25
2018-02-02T01:46:00.276Z,98976.01
2018-02-02T01:47:06.028Z,98972.23
2018-02-02T01:48:21.615Z,98971.90
2018-02-02T01:49:28.825Z,98969.39
2018-02-02T01:50:34.560Z,98970.77
2018-02-02T01:51:41.014Z,98966.06
2018-02-02T01:52:47.491Z,98969.53
2018-02-02T01:53:53.414Z,98974.28
2018-02-02T01:54:59.887Z,98974.70
2018-02-02T01:56:05.590Z,98979.96
2018-02-02T01:57:11.268Z,98974.79
2018-02-02T01:58:17.474Z,98973.55
2018-02-02T01:59:23.158Z,98979.56
2018-02-02T02:00:28.842Z,98980.12
2018-02-02T02:01:34.546Z,98982.26
2018-02-02T02:02:40.246Z,98975.88
2018-02-02T02:03:45.950Z,98974.21
2018-02-02T02:04:51.651Z,98977.30
2018-02-02T02:05:58.118Z,98974.34
2018-02-02T02:07:03.816Z,98974.77
2018-02-02T02:08:09.503Z,98974.38
2018-02-02T02:09:15.223Z,98975.72
2018-02-02T02:10:21.690Z,98971.34
2018-02-02T02:11:28.141Z,98971.84
2018-02-02T02:12:34.599Z,98973.58
2018-02-02T02:13:41.114Z,98974.42
2018-02-02T02:14:46.905Z,98969.30
2018-02-02T02:15:53.040Z,98970.59
2018-02-02T02:16:58.731Z,98975.34
2018-02-02T02:18:04.423Z,98968.06
2018-02-02T02:19:10.099Z,98974.16
2018-02-02T02:20:15.810Z,98969.47
2018-02-02T02:21:22.275Z,98965.98
2018-02-02T02:22:28.729Z,98962.50
2018-02-02T02:23:34.433Z,98967.25
2018-02-02T02:24:39.915Z,98969.44
2018-02-02T02:25:45.631Z,98964.77
2018-02-02T02:26:51.317Z,98967.75
2018-02-02T02:27:57.015Z,98962.10
2018-02-02T02:29:03.480Z,98962.52
2018-02-02T02:30:09.943Z,98959.48
2018-02-02T02:31:15.668Z,98962.10
2018-02-02T02:32:22.124Z,98967.22
2018-02-02T02:33:28.571Z,98963.34
2018-02-02T02:34:34.267Z,98960.78
2018-02-02T02:35:39.955Z,98962.08
2018-02-02T02:36:45.659Z,98960.44
2018-02-02T02:37:51.356Z,98967.83
2018-02-02T02:38:57.803Z,98961.37
2018-02-02T02:40:04.271Z,98961.81
2018-02-02T02:41:10.715Z,98961.84
2018-02-02T02:42:16.475Z,98966.54
2018-02-02T02:43:22.931Z,98970.36
2018-02-02T02:44:29.380Z,98960.41
2018-02-02T02:45:35.843Z,98963.00
2018-02-02T02:46:42.295Z,98964.34
2018-02-02T02:47:48.780Z,98969.44
2018-02-02T02:48:54.484Z,98969.05
2018-02-02T02:50:00.187Z,98966.17
2018-02-02T02:51:05.903Z,98968.75
2018-02-02T02:52:11.617Z,98969.77
2018-02-02T02:53:18.216Z,98976.54
2018-02-02T02:54:23.898Z,98961.87
2018-02-02T02:55:29.653Z,98970.05
2018-02-02T02:56:35.499Z,98967.91
2018-02-02T02:57:41.956Z,98963.19
2018-02-02T02:58:48.440Z,98964.48
2018-02-02T02:59:53.812Z,98970.92
2018-02-02T03:00:59.511Z,98962.69
2018-02-02T03:02:05.203Z,98968.64
2018-02-02T03:03:11.721Z,98971.73
2018-02-02T03:04:17.441Z,98969.12
2018-02-02T03:05:23.139Z,98966.91
2018-02-02T03:06:28.823Z,98972.05
2018-02-02T03:07:34.860Z,98963.42
2018-02-02T03:08:41.326Z,98969.02
2018-02-02T03:09:47.040Z,98967.48
2018-02-02T03:10:53.516Z,98965.80
2018-02-02T03:11:59.984Z,98962.77
2018-02-02T03:13:06.448Z,98955.03
2018-02-02T03:14:11.480Z,98955.48
2018-02-02T03:15:17.202Z,98956.33
2018-02-02T03:16:23.678Z,98946.51
2018-02-02T03:17:29.405Z,98957.64
2018-02-02T03:18:35.847Z,98953.77
2018-02-02T03:19:42.298Z,98952.47
2018-02-02T03:20:48.780Z,98955.90
2018-02-02T03:21:55.427Z,98961.47
2018-02-02T03:23:01.900Z,98954.55
2018-02-02T03:24:08.340Z,98957.19
2018-02-02T03:25:14.807Z,98965.41
2018-02-02T03:26:21.271Z,98961.05
2018-02-02T03:27:27.731Z,98965.37
2018-02-02T03:28:34.195Z,98967.52
2018-02-02T03:29:39.879Z,98970.63
2018-02-02T03:30:45.578Z,98972.71
2018-02-02T03:31:51.296Z,98966.30
2018-02-02T03:32:57.756Z,98971.95
2018-02-02T03:34:03.873Z,98966.75
2018-02-02T03:35:09.555Z,98972.69
2018-02-02T03:36:16.011Z,98971.39
2018-02-02T03:37:22.500Z,98972.80
2018-02-02T03:38:28.212Z,98969.25
2018-02-02T03:39:34.676Z,98969.25
2018-02-02T03:40:41.133Z,98965.88
2018-02-02T03:41:46.831Z,98972.37
2018-02-02T03:42:52.539Z,98980.16
2018-02-02T03:43:58.218Z,98969.02
2018-02-02T03:45:03.692Z,98970.34
2018-02-02T03:46:10.159Z,98973.03
2018-02-02T03:47:15.863Z,98962.66
2018-02-02T03:48:21.617Z,98969.59
2018-02-02T03:49:28.185Z,98974.80
2018-02-02T03:50:34.438Z,98971.31
2018-02-02T03:51:40.137Z,98970.09
2018-02-02T03:52:45.832Z,98973.53
2018-02-02T03:53:51.611Z,98972.69
2018-02-02T03:54:56.596Z,98974.42
2018-02-02T03:56:02.291Z,98971.92
2018-02-02T03:57:07.979Z,98979.25
2018-02-02T03:58:13.724Z,98977.09
2018-02-02T03:59:19.440Z,98978.41
2018-02-02T04:00:25.707Z,98976.72
2018-02-02T04:01:31.389Z,98980.70
2018-02-02T04:02:37.094Z,98978.14
2018-02-02T04:03:42.119Z,98978.91
2018-02-02T04:04:47.858Z,98979.73
2018-02-02T04:05:53.540Z,98982.72
2018-02-02T04:06:59.235Z,98987.48
2018-02-02T04:08:04.929Z,98986.22
2018-02-02T04:09:10.623Z,98986.24
2018-02-02T04:10:16.347Z,98982.02
2018-02-02T04:11:22.042Z,98986.77
2018-02-02T04:12:27.192Z,98987.53
2018-02-02T04:13:32.882Z,98978.94
2018-02-02T04:14:38.594Z,98984.58
2018-02-02T04:15:45.072Z,98985.03
2018-02-02T04:16:50.765Z,98986.35
2018-02-02T04:17:56.661Z,98985.11
2018-02-02T04:19:02.186Z,98985.21
2018-02-02T04:20:07.895Z,98977.06
2018-02-02T04:21:13.608Z,98984.00
2018-02-02T04:22:19.288Z,98987.83
2018-02-02T04:23:25.749Z,98984.34
2018-02-02T04:24:31.455Z,98986.98
2018-02-02T04:25:38.651Z,98980.12
2018-02-02T04:26:45.140Z,98982.67
2018-02-02T04:27:50.852Z,98989.66
2018-02-02T04:28:56.405Z,98981.52
2018-02-02T04:30:02.100Z,98989.98
2018-02-02T04:31:08.819Z,98997.74
2018-02-02T04:32:14.535Z,98995.20
2018-02-02T04:33:20.998Z,98996.55
2018-02-02T04:34:27.289Z,98994.81
2018-02-02T04:35:34.728Z,98988.30
2018-02-02T04:36:41.003Z,98996.92
2018-02-02T04:37:46.531Z,98988.72
2018-02-02T04:38:52.048Z,98992.15
2018-02-02T04:39:58.506Z,98991.33
2018-02-02T04:41:05.221Z,98991.35
2018-02-02T04:42:10.921Z,98991.80
2018-02-02T04:43:17.407Z,98987.92
2018-02-02T04:44:23.107Z,98993.55
2018-02-02T04:45:28.792Z,98999.98
2018-02-02T04:46:34.478Z,99001.67
2018-02-02T04:47:40.943Z,98998.69
2018-02-02T04:48:47.296Z,99001.70
2018-02-02T04:49:52.987Z,98998.34
2018-02-02T04:50:58.678Z,99001.38
2018-02-02T04:52:05.131Z,98994.44
2018-02-02T04:53:11.591Z,98996.95
2018-02-02T04:54:18.112Z,98995.63
2018-02-02T04:55:23.567Z,98997.03
2018-02-02T04:56:29.269Z,98997.03
2018-02-02T04:57:35.735Z,98996.19
2018-02-02T04:58:41.423Z,98994.05
2018-02-02T04:59:47.920Z,98991.48
2018-02-02T05:00:53.615Z,98985.52
2018-02-02T05:01:59.298Z,98990.27
2018-02-02T05:03:04.993Z,98995.98
2018-02-02T05:04:10.687Z,98988.23
2018-02-02T05:05:16.411Z,98991.71
2018-02-02T05:06:22.098Z,98991.42
2018-02-02T05:07:27.798Z,98987.17
2018-02-02T05:08:33.494Z,98987.98
2018-02-02T05:09:39.172Z,98987.13
2018-02-02T05:10:44.917Z,98987.56
2018-02-02T05:11:50.418Z,98990.55
2018-02-02T05:12:56.872Z,98986.67
2018-02-02T05:14:02.571Z,98991.00
2018-02-02T05:15:08.259Z,98987.56
2018-02-02T05:16:14.740Z,98989.26
2018-02-02T05:17:20.476Z,98981.53
2018-02-02T05:18:26.749Z,98983.72
2018-02-02T05:19:32.259Z,98983.64
2018-02-02T05:20:37.956Z,98985.72
2018-02-02T05:21:43.679Z,98984.56
2018-02-02T05:22:49.375Z,98979.39
2018-02-02T05:23:55.826Z,98982.81
2018-02-02T05:25:02.304Z,98977.65
2018-02-02T05:26:08.782Z,98984.14
2018-02-02T05:27:15.430Z,98980.68
2018-02-02T05:28:21.127Z,98981.95
2018-02-02T05:29:26.815Z,98987.09
2018-02-02T05:30:32.506Z,98985.38
2018-02-02T05:31:38.238Z,98986.27
2018-02-02T05:32:43.944Z,98987.64
2018-02-02T05:33:49.636Z,98989.38
2018-02-02T05:34:55.328Z,98989.91
2018-02-02T05:36:01.044Z,98989.13
2018-02-02T05:37:07.498Z,98993.38
2018-02-02T05:38:13.227Z,98993.43
2018-02-02T05:39:19.687Z,98993.94
2018-02-02T05:40:26.148Z,98988.81
2018-02-02T05:41:31.839Z,98989.73
2018-02-02T05:42:37.323Z,98994.05
2018-02-02T05:43:43.801Z,98991.05
2018-02-02T05:44:49.496Z,98991.47
2018-02-02T05:45:55.228Z,98992.02
2018-02-02T05:47:01.014Z,98988.07
2018-02-02T05:48:07.464Z,98991.58
2018-02-02T05:49:13.940Z,98991.10
2018-02-02T05:50:19.676Z,98988.46
2018-02-02T05:51:25.424Z,98986.70
2018-02-02T05:52:31.119Z,98990.17
2018-02-02T05:53:36.805Z,98990.16
2018-02-02T05:54:42.544Z,98987.99
2018-02-02T05:55:48.234Z,98987.65
2018-02-02T05:56:54.694Z,98991.87
2018-02-02T05:58:00.503Z,98992.34
2018-02-02T05:59:06.216Z,98995.72
2018-02-02T06:00:12.698Z,98995.23
2018-02-02T06:01:18.204Z,98993.43
2018-02-02T06:02:24.675Z,98994.63
2018-02-02T06:03:30.386Z,98996.77
2018-02-02T06:04:36.064Z,98994.45
2018-02-02T06:05:41.794Z,98986.52
2018-02-02T06:06:48.252Z,98989.05
2018-02-02T06:07:53.937Z,98989.00
2018-02-02T06:08:59.638Z,98994.12
2018-02-02T06:10:05.344Z,98992.80
2018-02-02T06:11:11.827Z,98994.47
2018-02-02T06:12:17.537Z,98992.75
2018-02-02T06:13:23.223Z,98997.50
2018-02-02T06:14:28.932Z,98998.22
2018-02-02T06:15:35.380Z,98997.32
2018-02-02T06:16:41.859Z,99003.67
2018-02-02T06:17:47.559Z,98994.18
2018-02-02T06:18:53.248Z,98994.18
2018-02-02T06:19:59.147Z,99002.05
2018-02-02T06:21:04.835Z,99005.05
2018-02-02T06:22:10.562Z,98996.05
2018-02-02T06:23:17.050Z,98998.64
2018-02-02T06:24:23.804Z,98994.89
2018-02-02T06:25:30.379Z,98994.49
2018-02-02T06:26:36.251Z,98997.52
2018-02-02T06:27:41.993Z,98996.30
2018-02-02T06:28:47.683Z,98996.41
2018-02-02T06:29:54.160Z,98998.17
2018-02-02T06:31:00.612Z,98999.52
2018-02-02T06:32:07.069Z,99003.45
2018-02-02T06:33:13.540Z,99003.08
2018-02-02T06:34:19.300Z,98994.52
2018-02-02T06:35:25.911Z,99000.09
2018-02-02T06:36:32.389Z,99000.06
2018-02-02T06:37:38.961Z,99000.53
2018-02-02T06:38:44.856Z,99003.59
2018-02-02T06:39:50.947Z,98996.77
2018-02-02T06:40:56.676Z,98994.16
2018-02-02T06:42:02.194Z,98996.36
2018-02-02T06:43:07.883Z,98995.92
2018-02-02T06:44:13.908Z,98996.79
2018-02-02T06:45:20.069Z,98998.50
2018-02-02T06:46:25.755Z,99001.09
2018-02-02T06:47:31.455Z,98995.47
2018-02-02T06:48:37.137Z,99000.24
2018-02-02T06:49:42.907Z,98996.39
2018-02-02T06:50:48.583Z,98998.06
2018-02-02T06:51:54.091Z,98994.95
2018-02-02T06:53:00.550Z,98991.48
2018-02-02T06:54:06.995Z,98994.16
2018-02-02T06:55:13.478Z,98997.13
2018-02-02T06:56:19.173Z,98999.69
2018-02-02T06:57:24.936Z,98994.95
2018-02-02T06:58:31.387Z,98991.94
2018-02-02T06:59:37.076Z,98991.09
2018-02-02T07:00:42.893Z,98990.17
2018-02-02T07:01:49.344Z,98984.16
2018-02-02T07:02:55.807Z,98984.52
2018-02-02T07:04:02.282Z,98982.29
2018-02-02T07:05:07.993Z,98983.53
2018-02-02T07:06:14.488Z,98988.23
2018-02-02T07:07:20.210Z,98986.91
2018-02-02T07:08:25.793Z,98989.00
2018-02-02T07:09:31.507Z,98985.13
2018-02-02T07:10:37.239Z,98991.09
2018-02-02T07:11:42.964Z,98988.92
2018-02-02T07:12:49.460Z,98983.28
2018-02-02T07:13:55.128Z,98988.84
2018-02-02T07:15:00.845Z,98990.09
2018-02-02T07:16:06.563Z,98999.48
2018-02-02T07:17:12.286Z,98996.41
2018-02-02T07:18:19.051Z,98996.77
2018-02-02T07:19:24.998Z,99005.74
2018-02-02T07:20:31.012Z,98999.17
2018-02-02T07:21:38.620Z,99001.28
2018-02-02T07:22:45.191Z,99003.82
2018-02-02T07:23:51.033Z,99007.67
2018-02-02T07:24:56.878Z,99008.56
2018-02-02T07:26:03.510Z,99008.99
2018-02-02T07:27:10.221Z,99013.27
2018-02-02T07:28:16.158Z,99008.02
2018-02-02T07:29:21.349Z,99012.24
2018-02-02T07:30:27.900Z,99007.09
2018-02-02T07:31:33.780Z,99008.36
2018-02-02T07:32:40.162Z,99005.22
2018-02-02T07:33:45.946Z,99011.66
2018-02-02T07:34:53.340Z,99009.50
2018-02-02T07:35:59.157Z,99016.77
2018-02-02T07:37:04.968Z,99015.36
2018-02-02T07:38:10.726Z,99011.83
2018-02-02T07:39:17.159Z,99013.44
2018-02-02T07:40:23.191Z,99017.58
2018-02-02T07:41:29.828Z,99012.33
2018-02-02T07:42:36.442Z,99012.30
2018-02-02T07:43:42.361Z,99013.75
2018-02-02T07:44:48.836Z,99012.72
2018-02-02T07:45:54.776Z,99008.28
2018-02-02T07:47:00.813Z,99010.00
2018-02-02T07:48:06.677Z,99012.12
2018-02-02T07:49:13.956Z,99008.91
2018-02-02T07:50:19.878Z,99012.63
2018-02-02T07:51:25.870Z,99016.25
2018-02-02T07:52:31.779Z,99019.41
2018-02-02T07:53:37.551Z,99020.84
2018-02-02T07:54:43.455Z,99020.94
2018-02-02T07:55:49.988Z,99020.19
2018-02-02T07:56:55.963Z,99021.56
2018-02-02T07:58:01.737Z,99017.87
2018-02-02T07:59:07.855Z,99019.65
2018-02-02T08:00:14.037Z,99022.34
2018-02-02T08:01:21.060Z,99023.72
2018-02-02T08:02:27.849Z,99019.81
2018-02-02T08:03:34.589Z,99021.97
2018-02-02T08:04:41.170Z,99017.70
2018-02-02T08:05:47.015Z,99018.70
2018-02-02T08:06:53.864Z,99019.66
2018-02-02T08:08:00.504Z,99014.48
2018-02-02T08:09:05.752Z,99015.56
2018-02-02T08:10:12.245Z,99016.48
2018-02-02T08:11:18.283Z,99018.81
2018-02-02T08:12:25.993Z,99016.58
2018-02-02T08:13:31.988Z,99017.97
2018-02-02T08:14:38.778Z,99016.45
2018-02-02T08:15:46.166Z,99011.92
2018-02-02T08:16:53.051Z,99014.36
2018-02-02T08:18:00.890Z,99012.13
2018-02-02T08:19:06.216Z,99016.47
2018-02-02T08:20:12.719Z,99013.72
2018-02-02T08:21:18.432Z,99011.16
2018-02-02T08:22:24.964Z,99008.50
2018-02-02T08:23:30.775Z,99013.27
2018-02-02T08:24:36.465Z,99010.45
2018-02-02T08:25:42.163Z,99010.42
2018-02-02T08:26:47.845Z,99004.29
2018-02-02T08:27:54.313Z,99008.58
2018-02-02T08:29:00.882Z,99003.33
2018-02-02T08:30:07.347Z,99008.32
2018-02-02T08:31:13.498Z,99004.34
2018-02-02T08:32:19.949Z,99005.50
2018-02-02T08:33:25.513Z,98998.34
2018-02-02T08:34:31.240Z,99003.34
2018-02-02T08:35:36.937Z,99004.47
2018-02-02T08:36:42.628Z,99000.61
2018-02-02T08:37:47.489Z,98999.97
2018-02-02T08:38:53.176Z,99000.58
2018-02-02T08:39:58.931Z,98999.96
2018-02-02T08:41:04.649Z,99001.52
2018-02-02T08:42:11.124Z,98994.08
2018-02-02T08:43:16.819Z,98998.18
2018-02-02T08:44:24.021Z,98994.45
2018-02-02T08:45:29.726Z,98992.69
2018-02-02T08:46:35.406Z,98985.98
2018-02-02T08:47:41.111Z,98991.61
2018-02-02T08:48:47.564Z,98985.13
2018-02-02T08:49:53.271Z,98985.75
2018-02-02T08:50:58.984Z,98994.25
2018-02-02T08:52:04.708Z,98993.46
2018-02-02T08:53:11.163Z,98991.09
2018-02-02T08:54:17.624Z,98994.20
2018-02-02T08:55:24.072Z,98989.80
2018-02-02T08:56:29.797Z,98994.50
2018-02-02T08:57:36.268Z,98991.98
2018-02-02T08:58:41.972Z,99002.61
2018-02-02T08:59:48.112Z,98992.94
2018-02-02T09:00:59.341Z,98994.06
2018-02-02T09:02:07.680Z,99004.23
2018-02-02T09:03:13.415Z,99004.52
2018-02-02T09:04:19.122Z,98991.86
2018-02-02T09:05:24.818Z,99001.77
2018-02-02T09:06:30.531Z,98999.48
2018-02-02T09:07:36.260Z,98997.89
2018-02-02T09:08:42.731Z,98998.52
2018-02-02T09:09:48.467Z,98992.70
2018-02-02T09:10:54.982Z,98999.83
2018-02-02T09:12:00.674Z,98995.72
2018-02-02T09:13:06.401Z,98992.69
2018-02-02T09:14:12.312Z,98993.20
2018-02-02T09:15:17.995Z,98994.29
2018-02-02T09:16:23.696Z,98987.11
2018-02-02T09:17:29.416Z,98992.23
2018-02-02T09:18:35.138Z,98988.33
2018-02-02T09:19:40.819Z,98993.19
2018-02-02T09:20:46.505Z,98988.80
2018-02-02T09:21:54.366Z,98991.02
2018-02-02T09:23:00.812Z,98988.13
2018-02-02T09:24:07.320Z,98981.73
2018-02-02T09:25:13.012Z,98989.05
2018-02-02T09:26:19.159Z,98994.17
2018-02-02T09:27:24.781Z,98992.27
2018-02-02T09:28:30.479Z,98999.27
2018-02-02T09:29:36.209Z,98993.58
2018-02-02T09:30:41.896Z,98991.50
2018-02-02T09:31:47.596Z,98987.56
2018-02-02T09:32:53.295Z,98988.30
2018-02-02T09:34:00.520Z,98988.62
2018-02-02T09:35:06.247Z,98981.39
2018-02-02T09:36:11.944Z,98980.78
2018-02-02T09:37:17.640Z,98981.21
2018-02-02T09:38:23.340Z,98981.68
2018-02-02T09:39:29.023Z,98979.70
2018-02-02T09:40:35.504Z,98979.80
2018-02-02T09:41:41.225Z,98983.11
2018-02-02T09:42:46.922Z,98980.29
2018-02-02T09:43:53.396Z,98986.85
2018-02-02T09:44:59.091Z,98980.75
2018-02-02T09:46:04.878Z,98983.67
2018-02-02T09:47:11.327Z,98979.45
2018-02-02T09:48:17.791Z,98978.25
2018-02-02T09:49:24.278Z,98975.38
2018-02-02T09:50:29.965Z,98981.00
2018-02-02T09:51:35.706Z,98987.05
2018-02-02T09:52:41.523Z,98981.00
2018-02-02T09:53:47.248Z,98988.92
2018-02-02T09:54:52.929Z,98983.59
2018-02-02T09:55:58.618Z,98982.91
2018-02-02T09:57:04.422Z,98987.28
2018-02-02T09:58:10.876Z,98995.61
2018-02-02T09:59:16.571Z,98984.49
2018-02-02T10:00:21.536Z,98982.73
2018-02-02T10:01:27.224Z,98984.69
2018-02-02T10:02:33.051Z,98985.13
2018-02-02T10:03:38.737Z,98985.30
2018-02-02T10:04:44.428Z,98983.88
2018-02-02T10:05:50.123Z,98983.50
2018-02-02T10:06:55.816Z,98984.27
2018-02-02T10:08:01.851Z,98984.27
2018-02-02T10:09:08.338Z,98979.67
2018-02-02T10:10:14.056Z,98982.16
2018-02-02T10:11:20.505Z,98978.88
2018-02-02T10:12:26.974Z,98982.09
2018-02-02T10:13:32.697Z,98972.48
2018-02-02T10:14:39.180Z,98988.02
2018-02-02T10:15:44.867Z,98985.58
2018-02-02T10:16:50.561Z,98988.78
2018-02-02T10:17:56.263Z,98990.63
2018-02-02T10:19:01.984Z,98987.05
2018-02-02T10:20:07.685Z,98988.73
2018-02-02T10:21:13.433Z,98987.61
2018-02-02T10:22:19.125Z,98984.58
2018-02-02T10:23:25.586Z,98984.20
2018-02-02T10:24:31.752Z,98988.44
2018-02-02T10:25:38.212Z,98985.43
2018-02-02T10:26:43.909Z,98984.31
2018-02-02T10:27:49.609Z,98981.13
2018-02-02T10:28:55.299Z,98982.28
2018-02-02T10:30:01.042Z,98984.28
2018-02-02T10:31:06.392Z,98982.60
2018-02-02T10:32:12.851Z,98986.68
2018-02-02T10:33:19.299Z,98977.89
2018-02-02T10:34:24.979Z,98985.84
2018-02-02T10:35:30.743Z,98978.78
2018-02-02T10:36:36.436Z,98980.19
2018-02-02T10:37:42.160Z,98977.89
2018-02-02T10:38:47.874Z,98983.22
2018-02-02T10:39:53.582Z,98982.64
2018-02-02T10:40:59.316Z,98976.62
2018-02-02T10:42:05.799Z,98982.27
2018-02-02T10:43:11.522Z,98983.27
2018-02-02T10:44:17.264Z,98982.39
2018-02-02T10:45:22.959Z,98980.55
2018-02-02T10:46:28.685Z,98975.09
2018-02-02T10:47:34.375Z,98977.23
2018-02-02T10:48:40.075Z,98985.23
2018-02-02T10:49:45.877Z,98971.29
2018-02-02T10:50:51.371Z,98976.08
2018-02-02T10:51:57.652Z,98972.59
2018-02-02T10:53:03.348Z,98972.52
2018-02-02T10:54:10.559Z,98971.64
2018-02-02T10:55:16.255Z,98980.18
2018-02-02T10:56:21.946Z,98971.41
2018-02-02T10:57:27.664Z,98975.09
2018-02-02T10:58:34.124Z,98974.25
2018-02-02T10:59:40.625Z,98971.11
2018-02-02T11:00:51.661Z,98972.69
2018-02-02T11:02:02.928Z,98973.41
2018-02-02T11:04:57.124Z,98977.39
2018-02-02T11:06:02.811Z,98967.02
2018-02-02T11:07:08.503Z,98971.15
2018-02-02T11:08:14.207Z,98973.45
2018-02-02T11:09:19.917Z,98971.84
2018-02-02T11:10:25.615Z,98967.55
2018-02-02T11:11:32.096Z,98968.05
2018-02-02T11:12:37.809Z,98977.27
2018-02-02T11:13:44.266Z,98967.89
2018-02-02T11:14:50.791Z,98964.90
2018-02-02T11:15:56.487Z,98960.95
2018-02-02T11:17:02.349Z,98958.69
2018-02-02T11:18:10.275Z,98958.73
2018-02-02T11:19:16.025Z,98958.55
2018-02-02T11:20:21.737Z,98958.84
2018-02-02T11:21:28.105Z,98957.81
2018-02-02T11:22:36.710Z,98957.70
2018-02-02T11:23:42.603Z,98957.44
2018-02-02T11:24:50.190Z,98956.36
2018-02-02T11:25:56.045Z,98944.83
2018-02-02T11:27:01.933Z,98952.91
2018-02-02T11:28:07.862Z,98951.03
2018-02-02T11:29:14.703Z,98945.75
2018-02-02T11:30:20.448Z,98952.38
2018-02-02T11:31:26.605Z,98946.20
2018-02-02T11:32:32.768Z,98945.31
2018-02-02T11:33:38.592Z,98941.72
2018-02-02T11:34:44.304Z,98946.89
2018-02-02T11:35:51.500Z,98942.41
2018-02-02T11:36:58.002Z,98944.38
2018-02-02T11:38:03.768Z,98945.17
2018-02-02T11:39:10.440Z,98947.28
2018-02-02T11:40:16.125Z,98951.58
2018-02-02T11:41:21.806Z,98944.68
2018-02-02T11:42:27.532Z,98943.65
2018-02-02T11:43:33.286Z,98953.52
2018-02-02T11:44:38.979Z,98943.30
2018-02-02T11:45:44.670Z,98949.66
2018-02-02T11:46:51.890Z,98942.80
2018-02-02T11:47:58.374Z,98943.41
2018-02-02T11:49:04.100Z,98949.00
2018-02-02T11:50:09.809Z,98952.07
2018-02-02T11:51:16.285Z,98954.33
2018-02-02T11:52:21.983Z,98945.33
2018-02-02T11:53:27.705Z,98947.70
2018-02-02T11:54:33.395Z,98945.02
2018-02-02T11:55:39.889Z,98952.07
2018-02-02T11:56:45.585Z,98942.19
2018-02-02T11:57:52.062Z,98948.86
2018-02-02T11:58:58.548Z,98949.43
2018-02-02T12:00:04.249Z,98949.35
2018-02-02T12:01:10.820Z,98955.33
2018-02-02T12:02:16.510Z,98950.20
2018-02-02T12:03:22.019Z,98957.05
2018-02-02T12:04:27.736Z,98952.50
2018-02-02T12:05:33.252Z,98952.88
2018-02-02T12:06:39.619Z,98956.89
2018-02-02T12:07:47.408Z,98961.98
2018-02-02T12:08:53.883Z,98958.39
2018-02-02T12:10:00.609Z,98959.16
2018-02-02T12:11:06.321Z,98959.54
2018-02-02T12:12:11.868Z,98959.69
2018-02-02T12:13:19.291Z,98957.16
2018-02-02T12:14:25.752Z,98960.15
2018-02-02T12:15:32.370Z,98962.80
2018-02-02T12:16:39.744Z,98957.42
2018-02-02T12:17:45.569Z,98961.30
2018-02-02T12:18:51.104Z,98958.03
2018-02-02T12:19:58.472Z,98960.53
2018-02-02T12:21:03.680Z,98957.97
2018-02-02T12:22:30.876Z,98957.97
2018-02-02T12:25:23.840Z,98960.07
2018-02-02T12:26:33.860Z,98962.25
2018-02-02T12:29:26.092Z,98966.55
2018-02-02T12:30:37.102Z,98963.90
2018-02-02T12:31:42.625Z,98961.11
2018-02-02T12:32:55.066Z,98969.00
2018-02-02T12:35:38.431Z,98960.11
2018-02-02T12:36:45.481Z,98970.30
2018-02-02T12:37:50.988Z,98961.42
2018-02-02T12:38:57.286Z,98960.84
2018-02-02T12:40:02.806Z,98953.91
2018-02-02T12:41:08.324Z,98960.12
2018-02-02T12:42:13.868Z,98963.48
2018-02-02T12:43:19.555Z,98959.08
2018-02-02T12:44:25.394Z,98954.95
2018-02-02T12:45:31.133Z,98956.67
2018-02-02T12:46:37.126Z,98957.13
2018-02-02T12:47:43.046Z,98950.42
2018-02-02T12:48:58.615Z,98955.09
2018-02-02T12:50:09.323Z,98955.52
2018-02-02T12:51:17.484Z,98953.19
2018-02-02T12:52:23.977Z,98953.95
2018-02-02T12:53:29.562Z,98958.13
2018-02-02T12:54:35.321Z,98950.84
2018-02-02T12:55:40.850Z,98948.09
2018-02-02T12:56:46.619Z,98948.09
2018-02-02T12:57:52.471Z,98943.95
2018-02-02T12:58:58.293Z,98951.45
2018-02-02T13:00:04.801Z,98949.16
2018-02-02T13:01:10.557Z,98955.83
2018-02-02T13:02:16.379Z,98947.28
2018-02-02T13:03:22.106Z,98956.09